Craryville, New York
Current Conditions -  °F | °C
As of 6:54 AM on Monday 20 Oct 2014 (Local Time) from KPSF Reporting Station
Overcast Overcast  
Wind Chill: 27°   Ceiling: 12000
Heat Index: 33°   Visibility: 10mi
Dew Point: 29°   Wind: 7mph
Humidity: 85%   Direction: 260°W
Pressure: 30"   Gusts: NA
Location:  42.17°N, 73.58°W
Report Text: KPSF 201054Z AUTO 26006KT 10SM OVC120 01/M02 A3000 RMK AO2 SLP164 T00061017
Loading
Personal Weather Stations






























Interactive Weather Map
Tropical Storm Tracking
New forecast layout! Learn more

10-Day Weather Forecast

Advertisements
Track Severe Weather on mobile